CCZ weather

Chub Cay Airport
Nicholls Town and Berry Islands, Bahamas

Public forecast

Using degrees Celsius for public forecast. Weather courtesy of forecast.io.

METAR (pilot weather report)

Closest report is Lynden Pindling International Airport, 32.0 nm (59.2 km) SE. Retrieved 2019/08/19 22:20 UTC (21 minutes ago):

MYNN 192220Z 09008KT 9999 -TSRA SCT018CB SCT020TCU BKN060 25/21 A3006

TAF (pilot weather forecast)

Closest forecast is Lynden Pindling International Airport, 32.0 nm (59.2 km) SE. Retrieved 2019/08/19 18:39 UTC (4 hours ago):

TAF MYNN 191630Z 1918/2018 12012KT 9999 FEW016CB SCT020 BKN200 PROB30 TEMPO 2006/2012 09010G20KT 7000 TSRA FEW014CB BKN016 BKN100